Hofa Park, Wisconsin
Current Conditions -  °F | °C
As of 8:37 PM on Saturday 22 Nov 2014 (Local Time) from KGRB Reporting Station
Haze Haze  
Wind Chill: 36°   Ceiling: 300
Heat Index: 39°   Visibility: 1.2mi
Dew Point: 38°   Wind: 5mph
Humidity: 96%   Direction: 200°SSW
Pressure: 29.78"   Gusts: NA
Location:  44.5116°N, 88.3076°W
Report Text: KGRB 230237Z 20004KT 1 1/4SM BR OVC003 04/03 A2978 RMK AO2 T00390033
Loading
Personal Weather Stations






























Interactive Weather Map New forecast layout! Learn more

10-Day Weather Forecast

Advertisements
Track Severe Weather on mobile